KAXS

Altus / Quartz Mountain Regional Airport

Altus, Oklahoma, USA
METAR KAXS 251915Z AUTO 20006KT 5SM HZ CLR 31/19 A2993 RMK AO2 T03080185
Observed Flight Rules
Sep-25 @ 19:15 UTC (7 minutes ago) Marginal Visual Flight Rules
Wind Visibility Clouds Conditions
200° at 6 knots 5 miles
  • Clear skies
  • Haze
Temperatures Readings
Current 31°C / 88°F
Dewpoint 19°C / 66°F
Humidity 49%
Altimeter 29.93" Hg
Pressure 1014 hPa
Elevation 437
METAR KAXS 251915Z AUTO 20006KT 5SM HZ CLR 31/19 A2993 RMK AO2 T03080185
Observed Flight Rules
Sep-25 @ 19:15 UTC
(7 minutes ago)
MVFR
Wind Visibility
200° at 6 knots 5 miles
Clouds
  • Clear skies
Conditions
  • Haze
Temperature Dewpoint
31°C / 88°F 19°C / 66°F
Humidity Altimeter Pressure
49% 29.93" Hg 1014 hPa